sensor_id;sensor_type;location;lat;lon;timestamp;P1;durP1;ratioP1;P2;durP2;ratioP2
61411;SDS011;47278;49.732;7.690;2023-04-25T00:01:05;6.63;;;5.43;;
61411;SDS011;47278;49.732;7.690;2023-04-25T00:03:31;6.57;;;5.65;;
61411;SDS011;47278;49.732;7.690;2023-04-25T00:05:58;7.70;;;5.40;;
61411;SDS011;47278;49.732;7.690;2023-04-25T00:08:28;6.00;;;5.40;;
61411;SDS011;47278;49.732;7.690;2023-04-25T00:10:55;7.20;;;5.70;;
61411;SDS011;47278;49.732;7.690;2023-04-25T00:13:21;6.97;;;5.57;;
61411;SDS011;47278;49.732;7.690;2023-04-25T00:15:47;7.93;;;5.57;;
61411;SDS011;47278;49.732;7.690;2023-04-25T00:18:13;6.63;;;5.90;;
61411;SDS011;47278;49.732;7.690;2023-04-25T00:20:39;7.10;;;5.80;;
61411;SDS011;47278;49.732;7.690;2023-04-25T00:23:05;6.35;;;5.55;;
61411;SDS011;47278;49.732;7.690;2023-04-25T00:25:31;6.50;;;5.43;;
61411;SDS011;47278;49.732;7.690;2023-04-25T00:27:57;6.03;;;5.43;;
61411;SDS011;47278;49.732;7.690;2023-04-25T00:30:22;7.00;;;5.68;;
61411;SDS011;47278;49.732;7.690;2023-04-25T00:32:48;6.85;;;6.15;;
61411;SDS011;47278;49.732;7.690;2023-04-25T00:35:14;6.20;;;5.50;;
61411;SDS011;47278;49.732;7.690;2023-04-25T00:37:40;6.35;;;5.50;;
61411;SDS011;47278;49.732;7.690;2023-04-25T00:40:07;8.98;;;5.30;;
61411;SDS011;47278;49.732;7.690;2023-04-25T00:42:33;6.43;;;5.70;;
61411;SDS011;47278;49.732;7.690;2023-04-25T00:45:01;7.22;;;5.53;;
61411;SDS011;47278;49.732;7.690;2023-04-25T00:47:27;7.20;;;5.72;;
61411;SDS011;47278;49.732;7.690;2023-04-25T00:49:53;5.95;;;5.35;;
61411;SDS011;47278;49.732;7.690;2023-04-25T00:52:19;6.35;;;5.00;;
61411;SDS011;47278;49.732;7.690;2023-04-25T00:54:45;5.97;;;5.18;;
61411;SDS011;47278;49.732;7.690;2023-04-25T00:57:11;6.55;;;5.18;;
61411;SDS011;47278;49.732;7.690;2023-04-25T00:59:37;6.25;;;5.65;;
61411;SDS011;47278;49.732;7.690;2023-04-25T01:02:04;6.18;;;5.38;;
61411;SDS011;47278;49.732;7.690;2023-04-25T01:04:30;5.68;;;5.07;;
61411;SDS011;47278;49.732;7.690;2023-04-25T01:06:56;6.85;;;5.75;;
61411;SDS011;47278;49.732;7.690;2023-04-25T01:09:22;6.28;;;5.30;;
61411;SDS011;47278;49.732;7.690;2023-04-25T01:11:49;6.97;;;5.55;;
61411;SDS011;47278;49.732;7.690;2023-04-25T01:14:15;6.82;;;5.75;;
61411;SDS011;47278;49.732;7.690;2023-04-25T01:16:41;5.90;;;5.30;;
61411;SDS011;47278;49.732;7.690;2023-04-25T01:19:09;5.85;;;5.28;;
61411;SDS011;47278;49.732;7.690;2023-04-25T01:21:37;7.88;;;5.18;;
61411;SDS011;47278;49.732;7.690;2023-04-25T01:24:03;6.30;;;5.60;;
61411;SDS011;47278;49.732;7.690;2023-04-25T01:26:30;7.03;;;5.95;;
61411;SDS011;47278;49.732;7.690;2023-04-25T01:28:56;6.90;;;5.72;;
61411;SDS011;47278;49.732;7.690;2023-04-25T01:31:22;9.80;;;6.30;;
61411;SDS011;47278;49.732;7.690;2023-04-25T01:33:49;8.95;;;6.35;;
61411;SDS011;47278;49.732;7.690;2023-04-25T01:36:14;6.30;;;5.70;;
61411;SDS011;47278;49.732;7.690;2023-04-25T01:38:40;6.78;;;6.13;;
61411;SDS011;47278;49.732;7.690;2023-04-25T01:41:06;9.18;;;6.60;;
61411;SDS011;47278;49.732;7.690;2023-04-25T01:43:32;7.15;;;6.43;;
61411;SDS011;47278;49.732;7.690;2023-04-25T01:45:58;7.53;;;6.18;;
61411;SDS011;47278;49.732;7.690;2023-04-25T01:48:24;11.15;;;7.60;;
61411;SDS011;47278;49.732;7.690;2023-04-25T01:50:50;7.43;;;6.60;;
61411;SDS011;47278;49.732;7.690;2023-04-25T01:53:16;7.65;;;6.20;;
61411;SDS011;47278;49.732;7.690;2023-04-25T01:55:41;6.95;;;6.25;;
61411;SDS011;47278;49.732;7.690;2023-04-25T01:58:07;9.75;;;6.45;;
61411;SDS011;47278;49.732;7.690;2023-04-25T02:00:37;7.35;;;6.65;;
61411;SDS011;47278;49.732;7.690;2023-04-25T02:03:04;8.93;;;7.00;;
61411;SDS011;47278;49.732;7.690;2023-04-25T02:05:34;14.45;;;7.07;;
61411;SDS011;47278;49.732;7.690;2023-04-25T02:08:05;7.35;;;6.57;;
61411;SDS011;47278;49.732;7.690;2023-04-25T02:10:31;8.10;;;6.57;;
61411;SDS011;47278;49.732;7.690;2023-04-25T02:12:58;7.70;;;6.38;;
61411;SDS011;47278;49.732;7.690;2023-04-25T02:15:23;10.30;;;7.35;;
61411;SDS011;47278;49.732;7.690;2023-04-25T02:17:49;8.20;;;6.65;;
61411;SDS011;47278;49.732;7.690;2023-04-25T02:20:17;9.48;;;6.53;;
61411;SDS011;47278;49.732;7.690;2023-04-25T02:22:45;8.23;;;6.03;;
61411;SDS011;47278;49.732;7.690;2023-04-25T02:25:11;7.45;;;6.13;;
61411;SDS011;47278;49.732;7.690;2023-04-25T02:27:37;8.63;;;6.32;;
61411;SDS011;47278;49.732;7.690;2023-04-25T02:30:03;6.97;;;6.22;;
61411;SDS011;47278;49.732;7.690;2023-04-25T02:32:31;7.70;;;6.90;;
61411;SDS011;47278;49.732;7.690;2023-04-25T02:34:57;7.20;;;6.50;;
61411;SDS011;47278;49.732;7.690;2023-04-25T02:37:28;7.32;;;6.63;;
61411;SDS011;47278;49.732;7.690;2023-04-25T02:39:54;7.05;;;6.30;;
61411;SDS011;47278;49.732;7.690;2023-04-25T02:42:20;9.15;;;6.70;;
61411;SDS011;47278;49.732;7.690;2023-04-25T02:44:46;9.00;;;7.10;;
61411;SDS011;47278;49.732;7.690;2023-04-25T02:47:11;12.00;;;7.15;;
61411;SDS011;47278;49.732;7.690;2023-04-25T02:49:37;8.13;;;7.00;;
61411;SDS011;47278;49.732;7.690;2023-04-25T02:52:03;9.45;;;7.45;;
61411;SDS011;47278;49.732;7.690;2023-04-25T02:54:29;8.53;;;7.17;;
61411;SDS011;47278;49.732;7.690;2023-04-25T02:56:55;9.23;;;7.43;;
61411;SDS011;47278;49.732;7.690;2023-04-25T02:59:20;9.45;;;7.25;;
61411;SDS011;47278;49.732;7.690;2023-04-25T03:01:46;10.67;;;7.77;;
61411;SDS011;47278;49.732;7.690;2023-04-25T03:04:12;9.03;;;7.60;;
61411;SDS011;47278;49.732;7.690;2023-04-25T03:06:37;9.87;;;7.93;;
61411;SDS011;47278;49.732;7.690;2023-04-25T03:09:03;10.48;;;7.88;;
61411;SDS011;47278;49.732;7.690;2023-04-25T03:11:29;8.73;;;7.57;;
61411;SDS011;47278;49.732;7.690;2023-04-25T03:13:54;11.27;;;8.30;;
61411;SDS011;47278;49.732;7.690;2023-04-25T03:16:20;13.05;;;7.80;;
61411;SDS011;47278;49.732;7.690;2023-04-25T03:18:46;10.55;;;7.50;;
61411;SDS011;47278;49.732;7.690;2023-04-25T03:21:12;9.15;;;7.68;;
61411;SDS011;47278;49.732;7.690;2023-04-25T03:23:38;9.43;;;7.70;;
61411;SDS011;47278;49.732;7.690;2023-04-25T03:26:03;9.93;;;8.03;;
61411;SDS011;47278;49.732;7.690;2023-04-25T03:28:29;12.17;;;8.17;;
61411;SDS011;47278;49.732;7.690;2023-04-25T03:30:55;9.67;;;7.33;;
61411;SDS011;47278;49.732;7.690;2023-04-25T03:33:20;9.43;;;8.05;;
61411;SDS011;47278;49.732;7.690;2023-04-25T03:35:46;9.23;;;7.33;;
61411;SDS011;47278;49.732;7.690;2023-04-25T03:38:12;9.40;;;7.87;;
61411;SDS011;47278;49.732;7.690;2023-04-25T03:40:37;10.07;;;7.17;;
61411;SDS011;47278;49.732;7.690;2023-04-25T03:43:03;10.57;;;7.60;;
61411;SDS011;47278;49.732;7.690;2023-04-25T03:45:29;9.33;;;7.17;;
61411;SDS011;47278;49.732;7.690;2023-04-25T03:47:55;8.52;;;7.03;;
61411;SDS011;47278;49.732;7.690;2023-04-25T03:50:22;7.72;;;6.93;;
61411;SDS011;47278;49.732;7.690;2023-04-25T03:52:48;8.70;;;7.03;;
61411;SDS011;47278;49.732;7.690;2023-04-25T03:55:13;8.00;;;7.20;;
61411;SDS011;47278;49.732;7.690;2023-04-25T03:57:39;8.38;;;7.15;;
61411;SDS011;47278;49.732;7.690;2023-04-25T04:00:05;8.93;;;7.00;;
61411;SDS011;47278;49.732;7.690;2023-04-25T04:02:31;12.30;;;8.43;;
61411;SDS011;47278;49.732;7.690;2023-04-25T04:04:58;9.13;;;7.43;;
61411;SDS011;47278;49.732;7.690;2023-04-25T04:07:23;8.20;;;7.40;;
61411;SDS011;47278;49.732;7.690;2023-04-25T04:09:49;12.90;;;9.43;;
61411;SDS011;47278;49.732;7.690;2023-04-25T04:12:14;10.73;;;8.10;;
61411;SDS011;47278;49.732;7.690;2023-04-25T04:14:40;10.20;;;8.20;;
61411;SDS011;47278;49.732;7.690;2023-04-25T04:17:06;11.52;;;7.85;;
61411;SDS011;47278;49.732;7.690;2023-04-25T04:19:31;8.93;;;7.60;;
61411;SDS011;47278;49.732;7.690;2023-04-25T04:21:57;11.10;;;7.53;;
61411;SDS011;47278;49.732;7.690;2023-04-25T04:24:23;8.52;;;7.50;;
61411;SDS011;47278;49.732;7.690;2023-04-25T04:26:49;9.52;;;7.78;;
61411;SDS011;47278;49.732;7.690;2023-04-25T04:29:15;11.37;;;8.03;;
61411;SDS011;47278;49.732;7.690;2023-04-25T04:31:47;10.10;;;8.18;;
61411;SDS011;47278;49.732;7.690;2023-04-25T04:34:14;9.27;;;8.27;;
61411;SDS011;47278;49.732;7.690;2023-04-25T04:36:41;9.68;;;8.07;;
61411;SDS011;47278;49.732;7.690;2023-04-25T04:39:07;11.32;;;8.07;;
61411;SDS011;47278;49.732;7.690;2023-04-25T04:41:34;9.10;;;7.97;;
61411;SDS011;47278;49.732;7.690;2023-04-25T04:43:59;11.07;;;7.63;;
61411;SDS011;47278;49.732;7.690;2023-04-25T04:46:26;9.48;;;7.90;;
61411;SDS011;47278;49.732;7.690;2023-04-25T04:48:53;10.25;;;8.27;;
61411;SDS011;47278;49.732;7.690;2023-04-25T04:51:18;11.77;;;8.05;;
61411;SDS011;47278;49.732;7.690;2023-04-25T04:53:45;9.02;;;8.07;;
61411;SDS011;47278;49.732;7.690;2023-04-25T04:56:11;9.95;;;8.05;;
61411;SDS011;47278;49.732;7.690;2023-04-25T04:58:36;14.57;;;8.40;;
61411;SDS011;47278;49.732;7.690;2023-04-25T05:01:02;9.48;;;8.40;;
61411;SDS011;47278;49.732;7.690;2023-04-25T05:03:28;9.70;;;8.20;;
61411;SDS011;47278;49.732;7.690;2023-04-25T05:05:54;10.15;;;8.38;;
61411;SDS011;47278;49.732;7.690;2023-04-25T05:08:20;12.32;;;9.35;;
61411;SDS011;47278;49.732;7.690;2023-04-25T05:10:45;13.20;;;8.98;;
61411;SDS011;47278;49.732;7.690;2023-04-25T05:13:11;15.85;;;8.93;;
61411;SDS011;47278;49.732;7.690;2023-04-25T05:15:36;13.18;;;9.70;;
61411;SDS011;47278;49.732;7.690;2023-04-25T05:18:03;11.70;;;9.52;;
61411;SDS011;47278;49.732;7.690;2023-04-25T05:20:30;11.77;;;9.20;;
61411;SDS011;47278;49.732;7.690;2023-04-25T05:22:56;14.27;;;10.05;;
61411;SDS011;47278;49.732;7.690;2023-04-25T05:25:21;10.45;;;8.95;;
61411;SDS011;47278;49.732;7.690;2023-04-25T05:27:47;16.15;;;9.77;;
61411;SDS011;47278;49.732;7.690;2023-04-25T05:30:13;12.20;;;9.63;;
61411;SDS011;47278;49.732;7.690;2023-04-25T05:32:38;13.02;;;9.35;;
61411;SDS011;47278;49.732;7.690;2023-04-25T05:35:05;12.43;;;10.32;;
61411;SDS011;47278;49.732;7.690;2023-04-25T05:37:31;14.07;;;10.20;;
61411;SDS011;47278;49.732;7.690;2023-04-25T05:39:57;12.90;;;10.73;;
61411;SDS011;47278;49.732;7.690;2023-04-25T05:42:23;15.07;;;10.63;;
61411;SDS011;47278;49.732;7.690;2023-04-25T05:44:49;15.10;;;11.93;;
61411;SDS011;47278;49.732;7.690;2023-04-25T05:47:14;14.23;;;10.60;;
61411;SDS011;47278;49.732;7.690;2023-04-25T05:49:40;14.63;;;10.40;;
61411;SDS011;47278;49.732;7.690;2023-04-25T05:52:05;14.02;;;11.23;;
61411;SDS011;47278;49.732;7.690;2023-04-25T05:54:31;15.93;;;10.75;;
61411;SDS011;47278;49.732;7.690;2023-04-25T05:56:57;12.02;;;9.95;;
61411;SDS011;47278;49.732;7.690;2023-04-25T05:59:22;14.27;;;10.15;;
61411;SDS011;47278;49.732;7.690;2023-04-25T06:01:48;17.10;;;13.75;;
61411;SDS011;47278;49.732;7.690;2023-04-25T06:04:14;12.65;;;11.20;;
61411;SDS011;47278;49.732;7.690;2023-04-25T06:06:39;14.75;;;11.07;;
61411;SDS011;47278;49.732;7.690;2023-04-25T06:09:05;14.43;;;11.43;;
61411;SDS011;47278;49.732;7.690;2023-04-25T06:11:31;12.73;;;10.30;;
61411;SDS011;47278;49.732;7.690;2023-04-25T06:13:56;14.02;;;11.02;;
61411;SDS011;47278;49.732;7.690;2023-04-25T06:16:22;13.38;;;9.98;;
61411;SDS011;47278;49.732;7.690;2023-04-25T06:18:50;12.30;;;9.73;;
61411;SDS011;47278;49.732;7.690;2023-04-25T06:21:16;13.15;;;9.85;;
61411;SDS011;47278;49.732;7.690;2023-04-25T06:23:41;14.77;;;9.77;;
61411;SDS011;47278;49.732;7.690;2023-04-25T06:26:07;14.57;;;10.63;;
61411;SDS011;47278;49.732;7.690;2023-04-25T06:28:33;13.52;;;9.90;;
61411;SDS011;47278;49.732;7.690;2023-04-25T06:30:58;12.48;;;9.98;;
61411;SDS011;47278;49.732;7.690;2023-04-25T06:33:24;15.52;;;10.40;;
61411;SDS011;47278;49.732;7.690;2023-04-25T06:35:50;12.90;;;9.75;;
61411;SDS011;47278;49.732;7.690;2023-04-25T06:38:15;11.95;;;10.40;;
61411;SDS011;47278;49.732;7.690;2023-04-25T06:40:41;13.05;;;9.60;;
61411;SDS011;47278;49.732;7.690;2023-04-25T06:43:07;14.07;;;9.55;;
61411;SDS011;47278;49.732;7.690;2023-04-25T06:45:32;16.30;;;10.32;;
61411;SDS011;47278;49.732;7.690;2023-04-25T06:47:58;14.07;;;9.82;;
61411;SDS011;47278;49.732;7.690;2023-04-25T06:50:24;11.40;;;9.52;;
61411;SDS011;47278;49.732;7.690;2023-04-25T06:52:49;12.70;;;10.80;;
61411;SDS011;47278;49.732;7.690;2023-04-25T06:55:15;13.43;;;10.07;;
61411;SDS011;47278;49.732;7.690;2023-04-25T06:57:41;12.90;;;9.77;;
61411;SDS011;47278;49.732;7.690;2023-04-25T07:00:06;15.23;;;10.23;;
61411;SDS011;47278;49.732;7.690;2023-04-25T07:02:35;13.45;;;9.13;;
61411;SDS011;47278;49.732;7.690;2023-04-25T07:05:02;15.18;;;8.55;;
61411;SDS011;47278;49.732;7.690;2023-04-25T07:07:29;18.25;;;9.02;;
61411;SDS011;47278;49.732;7.690;2023-04-25T07:09:55;13.23;;;8.52;;
61411;SDS011;47278;49.732;7.690;2023-04-25T07:12:21;17.27;;;9.07;;
61411;SDS011;47278;49.732;7.690;2023-04-25T07:14:47;15.65;;;8.40;;
61411;SDS011;47278;49.732;7.690;2023-04-25T07:17:12;17.35;;;9.27;;
61411;SDS011;47278;49.732;7.690;2023-04-25T07:19:38;16.20;;;9.00;;
61411;SDS011;47278;49.732;7.690;2023-04-25T07:22:05;16.40;;;9.38;;
61411;SDS011;47278;49.732;7.690;2023-04-25T07:24:31;14.48;;;7.97;;
61411;SDS011;47278;49.732;7.690;2023-04-25T07:26:57;17.25;;;9.57;;
61411;SDS011;47278;49.732;7.690;2023-04-25T07:29:23;16.83;;;8.82;;
61411;SDS011;47278;49.732;7.690;2023-04-25T07:31:49;19.27;;;8.90;;
61411;SDS011;47278;49.732;7.690;2023-04-25T07:34:16;14.75;;;8.45;;
61411;SDS011;47278;49.732;7.690;2023-04-25T07:36:41;15.95;;;8.40;;
61411;SDS011;47278;49.732;7.690;2023-04-25T07:39:07;14.98;;;8.10;;
61411;SDS011;47278;49.732;7.690;2023-04-25T07:41:35;13.52;;;8.02;;
61411;SDS011;47278;49.732;7.690;2023-04-25T07:44:01;15.10;;;7.88;;
61411;SDS011;47278;49.732;7.690;2023-04-25T07:46:27;15.75;;;9.15;;
61411;SDS011;47278;49.732;7.690;2023-04-25T07:48:52;13.55;;;7.43;;
61411;SDS011;47278;49.732;7.690;2023-04-25T07:51:18;14.40;;;7.80;;
61411;SDS011;47278;49.732;7.690;2023-04-25T07:53:45;14.75;;;7.50;;
61411;SDS011;47278;49.732;7.690;2023-04-25T07:56:11;12.25;;;6.75;;
61411;SDS011;47278;49.732;7.690;2023-04-25T07:58:36;10.90;;;6.00;;
61411;SDS011;47278;49.732;7.690;2023-04-25T08:01:02;12.27;;;6.60;;
61411;SDS011;47278;49.732;7.690;2023-04-25T08:03:28;12.88;;;6.63;;
61411;SDS011;47278;49.732;7.690;2023-04-25T08:05:54;11.90;;;6.63;;
61411;SDS011;47278;49.732;7.690;2023-04-25T08:08:20;15.57;;;8.70;;
61411;SDS011;47278;49.732;7.690;2023-04-25T08:10:46;14.18;;;6.45;;
61411;SDS011;47278;49.732;7.690;2023-04-25T08:13:13;11.15;;;5.55;;
61411;SDS011;47278;49.732;7.690;2023-04-25T08:15:38;8.98;;;5.13;;
61411;SDS011;47278;49.732;7.690;2023-04-25T08:18:04;19.80;;;9.52;;
61411;SDS011;47278;49.732;7.690;2023-04-25T08:20:30;15.63;;;6.53;;
61411;SDS011;47278;49.732;7.690;2023-04-25T08:22:55;10.50;;;3.88;;
61411;SDS011;47278;49.732;7.690;2023-04-25T08:25:21;10.25;;;3.95;;
61411;SDS011;47278;49.732;7.690;2023-04-25T08:27:47;11.85;;;5.10;;
61411;SDS011;47278;49.732;7.690;2023-04-25T08:30:12;10.20;;;4.35;;
61411;SDS011;47278;49.732;7.690;2023-04-25T08:32:38;7.15;;;4.10;;
61411;SDS011;47278;49.732;7.690;2023-04-25T08:35:04;10.73;;;4.10;;
61411;SDS011;47278;49.732;7.690;2023-04-25T08:37:30;6.72;;;3.58;;
61411;SDS011;47278;49.732;7.690;2023-04-25T08:39:56;8.13;;;4.70;;
61411;SDS011;47278;49.732;7.690;2023-04-25T08:42:22;7.47;;;3.42;;
61411;SDS011;47278;49.732;7.690;2023-04-25T08:44:49;10.30;;;3.40;;
61411;SDS011;47278;49.732;7.690;2023-04-25T08:47:18;9.93;;;3.70;;
61411;SDS011;47278;49.732;7.690;2023-04-25T08:49:46;9.07;;;4.10;;
61411;SDS011;47278;49.732;7.690;2023-04-25T08:52:13;6.80;;;3.85;;
61411;SDS011;47278;49.732;7.690;2023-04-25T08:54:43;8.48;;;4.20;;
61411;SDS011;47278;49.732;7.690;2023-04-25T08:57:13;6.97;;;3.92;;
61411;SDS011;47278;49.732;7.690;2023-04-25T08:59:40;8.63;;;4.25;;
61411;SDS011;47278;49.732;7.690;2023-04-25T09:02:10;8.40;;;3.53;;
61411;SDS011;47278;49.732;7.690;2023-04-25T09:04:44;8.65;;;3.72;;
61411;SDS011;47278;49.732;7.690;2023-04-25T09:07:10;5.90;;;3.78;;
61411;SDS011;47278;49.732;7.690;2023-04-25T09:09:36;6.78;;;4.18;;
61411;SDS011;47278;49.732;7.690;2023-04-25T09:12:01;7.65;;;4.00;;
61411;SDS011;47278;49.732;7.690;2023-04-25T09:14:27;8.80;;;4.35;;
61411;SDS011;47278;49.732;7.690;2023-04-25T09:19:25;5.80;;;4.03;;
61411;SDS011;47278;49.732;7.690;2023-04-25T09:21:56;7.78;;;4.00;;
61411;SDS011;47278;49.732;7.690;2023-04-25T09:24:40;7.30;;;4.82;;
61411;SDS011;47278;49.732;7.690;2023-04-25T09:27:09;8.23;;;4.05;;
61411;SDS011;47278;49.732;7.690;2023-04-25T09:29:37;8.25;;;3.88;;
61411;SDS011;47278;49.732;7.690;2023-04-25T09:32:11;6.90;;;4.40;;
61411;SDS011;47278;49.732;7.690;2023-04-25T09:34:41;5.03;;;3.60;;
61411;SDS011;47278;49.732;7.690;2023-04-25T09:37:11;6.78;;;4.45;;
61411;SDS011;47278;49.732;7.690;2023-04-25T09:39:37;6.30;;;4.18;;
61411;SDS011;47278;49.732;7.690;2023-04-25T09:42:04;5.25;;;3.90;;
61411;SDS011;47278;49.732;7.690;2023-04-25T09:44:30;6.93;;;3.80;;
61411;SDS011;47278;49.732;7.690;2023-04-25T09:46:56;7.28;;;3.85;;
61411;SDS011;47278;49.732;7.690;2023-04-25T09:49:24;6.65;;;4.28;;
61411;SDS011;47278;49.732;7.690;2023-04-25T09:54:22;7.15;;;4.70;;
61411;SDS011;47278;49.732;7.690;2023-04-25T09:56:49;5.68;;;4.32;;
61411;SDS011;47278;49.732;7.690;2023-04-25T09:59:21;7.18;;;4.68;;
61411;SDS011;47278;49.732;7.690;2023-04-25T10:01:49;8.40;;;4.53;;
61411;SDS011;47278;49.732;7.690;2023-04-25T10:04:18;6.47;;;4.03;;
61411;SDS011;47278;49.732;7.690;2023-04-25T10:06:48;7.55;;;4.53;;
61411;SDS011;47278;49.732;7.690;2023-04-25T10:09:17;8.00;;;4.30;;
61411;SDS011;47278;49.732;7.690;2023-04-25T10:11:46;11.32;;;6.03;;
61411;SDS011;47278;49.732;7.690;2023-04-25T10:14:15;7.30;;;4.70;;
61411;SDS011;47278;49.732;7.690;2023-04-25T10:16:42;5.20;;;4.13;;
61411;SDS011;47278;49.732;7.690;2023-04-25T10:19:11;8.70;;;4.18;;
61411;SDS011;47278;49.732;7.690;2023-04-25T10:21:44;7.88;;;4.82;;
61411;SDS011;47278;49.732;7.690;2023-04-25T10:24:15;16.63;;;9.85;;
61411;SDS011;47278;49.732;7.690;2023-04-25T10:26:41;9.93;;;6.47;;
61411;SDS011;47278;49.732;7.690;2023-04-25T10:29:06;5.30;;;4.20;;
61411;SDS011;47278;49.732;7.690;2023-04-25T10:31:34;8.07;;;4.07;;
61411;SDS011;47278;49.732;7.690;2023-04-25T10:34:10;20.73;;;9.88;;
61411;SDS011;47278;49.732;7.690;2023-04-25T10:36:36;6.38;;;4.13;;
61411;SDS011;47278;49.732;7.690;2023-04-25T10:39:05;6.90;;;4.53;;
61411;SDS011;47278;49.732;7.690;2023-04-25T10:41:55;12.70;;;6.35;;
61411;SDS011;47278;49.732;7.690;2023-04-25T10:44:25;11.13;;;9.65;;
61411;SDS011;47278;49.732;7.690;2023-04-25T10:46:54;8.50;;;5.57;;
61411;SDS011;47278;49.732;7.690;2023-04-25T10:49:37;7.22;;;5.43;;
61411;SDS011;47278;49.732;7.690;2023-04-25T10:52:15;12.07;;;4.80;;
61411;SDS011;47278;49.732;7.690;2023-04-25T10:54:59;6.72;;;4.97;;
61411;SDS011;47278;49.732;7.690;2023-04-25T10:59:59;9.13;;;5.90;;
61411;SDS011;47278;49.732;7.690;2023-04-25T11:02:46;9.88;;;5.43;;
61411;SDS011;47278;49.732;7.690;2023-04-25T11:05:26;8.57;;;5.40;;
61411;SDS011;47278;49.732;7.690;2023-04-25T11:07:56;11.85;;;6.50;;
61411;SDS011;47278;49.732;7.690;2023-04-25T11:10:28;11.20;;;6.10;;
61411;SDS011;47278;49.732;7.690;2023-04-25T11:12:55;10.80;;;6.68;;
61411;SDS011;47278;49.732;7.690;2023-04-25T11:15:21;9.18;;;5.72;;
61411;SDS011;47278;49.732;7.690;2023-04-25T11:17:47;9.70;;;5.63;;
61411;SDS011;47278;49.732;7.690;2023-04-25T11:20:13;10.48;;;5.57;;
61411;SDS011;47278;49.732;7.690;2023-04-25T11:22:40;8.88;;;5.72;;
61411;SDS011;47278;49.732;7.690;2023-04-25T11:25:07;13.52;;;5.45;;
61411;SDS011;47278;49.732;7.690;2023-04-25T11:27:34;11.10;;;5.53;;
61411;SDS011;47278;49.732;7.690;2023-04-25T11:30:12;10.32;;;5.78;;
61411;SDS011;47278;49.732;7.690;2023-04-25T11:32:40;11.15;;;5.57;;
61411;SDS011;47278;49.732;7.690;2023-04-25T11:35:07;11.40;;;5.45;;
61411;SDS011;47278;49.732;7.690;2023-04-25T11:37:33;8.75;;;5.32;;
61411;SDS011;47278;49.732;7.690;2023-04-25T11:39:59;7.47;;;4.90;;
61411;SDS011;47278;49.732;7.690;2023-04-25T11:42:25;9.30;;;4.68;;
61411;SDS011;47278;49.732;7.690;2023-04-25T11:44:51;10.55;;;4.38;;
61411;SDS011;47278;49.732;7.690;2023-04-25T11:47:17;7.55;;;4.10;;
61411;SDS011;47278;49.732;7.690;2023-04-25T11:49:43;14.77;;;5.53;;
61411;SDS011;47278;49.732;7.690;2023-04-25T11:52:08;8.73;;;4.55;;
61411;SDS011;47278;49.732;7.690;2023-04-25T11:54:37;11.15;;;4.53;;
61411;SDS011;47278;49.732;7.690;2023-04-25T11:57:03;8.85;;;4.90;;
61411;SDS011;47278;49.732;7.690;2023-04-25T11:59:29;9.07;;;3.90;;
61411;SDS011;47278;49.732;7.690;2023-04-25T12:01:55;8.40;;;3.70;;
61411;SDS011;47278;49.732;7.690;2023-04-25T12:04:22;8.95;;;5.28;;
61411;SDS011;47278;49.732;7.690;2023-04-25T12:06:50;10.43;;;5.85;;
61411;SDS011;47278;49.732;7.690;2023-04-25T12:09:19;9.55;;;4.05;;
61411;SDS011;47278;49.732;7.690;2023-04-25T12:11:48;8.48;;;3.75;;
61411;SDS011;47278;49.732;7.690;2023-04-25T12:14:22;9.02;;;4.50;;
61411;SDS011;47278;49.732;7.690;2023-04-25T12:16:50;7.30;;;3.72;;
61411;SDS011;47278;49.732;7.690;2023-04-25T12:19:16;12.20;;;4.40;;
61411;SDS011;47278;49.732;7.690;2023-04-25T12:21:45;7.53;;;3.85;;
61411;SDS011;47278;49.732;7.690;2023-04-25T12:24:11;12.98;;;4.82;;
61411;SDS011;47278;49.732;7.690;2023-04-25T12:29:21;8.55;;;4.53;;
61411;SDS011;47278;49.732;7.690;2023-04-25T12:31:48;8.30;;;3.78;;
61411;SDS011;47278;49.732;7.690;2023-04-25T12:34:14;7.35;;;4.10;;
61411;SDS011;47278;49.732;7.690;2023-04-25T12:36:41;14.43;;;4.15;;
61411;SDS011;47278;49.732;7.690;2023-04-25T12:39:06;10.90;;;4.20;;
61411;SDS011;47278;49.732;7.690;2023-04-25T12:41:32;12.20;;;4.50;;
61411;SDS011;47278;49.732;7.690;2023-04-25T12:43:58;7.90;;;4.03;;
61411;SDS011;47278;49.732;7.690;2023-04-25T12:46:24;12.63;;;4.18;;
61411;SDS011;47278;49.732;7.690;2023-04-25T12:48:50;7.93;;;3.88;;
61411;SDS011;47278;49.732;7.690;2023-04-25T12:51:15;9.02;;;3.70;;
61411;SDS011;47278;49.732;7.690;2023-04-25T12:53:41;10.77;;;3.88;;
61411;SDS011;47278;49.732;7.690;2023-04-25T12:56:07;11.77;;;4.00;;
61411;SDS011;47278;49.732;7.690;2023-04-25T12:58:33;7.80;;;3.40;;
61411;SDS011;47278;49.732;7.690;2023-04-25T13:00:59;6.70;;;3.40;;
61411;SDS011;47278;49.732;7.690;2023-04-25T13:03:25;9.75;;;4.13;;
61411;SDS011;47278;49.732;7.690;2023-04-25T13:05:51;11.25;;;3.08;;
61411;SDS011;47278;49.732;7.690;2023-04-25T13:08:18;7.97;;;3.20;;
61411;SDS011;47278;49.732;7.690;2023-04-25T13:10:43;6.05;;;2.47;;
61411;SDS011;47278;49.732;7.690;2023-04-25T13:13:09;8.02;;;2.88;;
61411;SDS011;47278;49.732;7.690;2023-04-25T13:15:35;8.23;;;2.90;;
61411;SDS011;47278;49.732;7.690;2023-04-25T13:18:01;7.70;;;2.80;;
61411;SDS011;47278;49.732;7.690;2023-04-25T13:20:28;12.13;;;3.17;;
61411;SDS011;47278;49.732;7.690;2023-04-25T13:22:54;4.65;;;2.75;;
61411;SDS011;47278;49.732;7.690;2023-04-25T13:25:20;6.00;;;3.05;;
61411;SDS011;47278;49.732;7.690;2023-04-25T13:27:47;5.43;;;2.63;;
61411;SDS011;47278;49.732;7.690;2023-04-25T13:30:12;6.55;;;2.28;;
61411;SDS011;47278;49.732;7.690;2023-04-25T13:32:38;6.65;;;2.60;;
61411;SDS011;47278;49.732;7.690;2023-04-25T13:35:06;5.80;;;2.70;;
61411;SDS011;47278;49.732;7.690;2023-04-25T13:37:35;7.20;;;2.95;;
61411;SDS011;47278;49.732;7.690;2023-04-25T13:40:02;6.07;;;2.80;;
61411;SDS011;47278;49.732;7.690;2023-04-25T13:42:30;7.78;;;2.70;;
61411;SDS011;47278;49.732;7.690;2023-04-25T13:44:56;6.53;;;2.35;;
61411;SDS011;47278;49.732;7.690;2023-04-25T13:47:22;7.28;;;3.00;;
61411;SDS011;47278;49.732;7.690;2023-04-25T13:49:48;8.65;;;3.35;;
61411;SDS011;47278;49.732;7.690;2023-04-25T13:52:14;5.95;;;3.13;;
61411;SDS011;47278;49.732;7.690;2023-04-25T13:54:40;8.48;;;2.85;;
61411;SDS011;47278;49.732;7.690;2023-04-25T13:57:06;8.70;;;3.28;;
61411;SDS011;47278;49.732;7.690;2023-04-25T13:59:32;11.48;;;3.10;;
61411;SDS011;47278;49.732;7.690;2023-04-25T14:01:58;9.57;;;3.22;;
61411;SDS011;47278;49.732;7.690;2023-04-25T14:04:24;7.18;;;3.05;;
61411;SDS011;47278;49.732;7.690;2023-04-25T14:06:50;5.90;;;2.50;;
61411;SDS011;47278;49.732;7.690;2023-04-25T14:09:16;7.50;;;3.35;;
61411;SDS011;47278;49.732;7.690;2023-04-25T14:11:42;5.30;;;2.40;;
61411;SDS011;47278;49.732;7.690;2023-04-25T14:14:08;4.90;;;2.50;;
61411;SDS011;47278;49.732;7.690;2023-04-25T14:16:34;5.22;;;2.75;;
61411;SDS011;47278;49.732;7.690;2023-04-25T14:19:02;6.47;;;2.80;;
61411;SDS011;47278;49.732;7.690;2023-04-25T14:21:28;4.65;;;3.00;;
61411;SDS011;47278;49.732;7.690;2023-04-25T14:23:57;9.30;;;3.78;;
61411;SDS011;47278;49.732;7.690;2023-04-25T14:26:22;7.25;;;3.70;;
61411;SDS011;47278;49.732;7.690;2023-04-25T14:28:49;5.20;;;2.75;;
61411;SDS011;47278;49.732;7.690;2023-04-25T14:31:15;6.13;;;2.83;;
61411;SDS011;47278;49.732;7.690;2023-04-25T14:33:41;8.07;;;3.22;;
61411;SDS011;47278;49.732;7.690;2023-04-25T14:36:08;9.20;;;2.78;;
61411;SDS011;47278;49.732;7.690;2023-04-25T14:38:35;4.55;;;2.67;;
61411;SDS011;47278;49.732;7.690;2023-04-25T14:41:00;7.85;;;2.80;;
61411;SDS011;47278;49.732;7.690;2023-04-25T14:43:26;7.10;;;3.58;;
61411;SDS011;47278;49.732;7.690;2023-04-25T14:45:52;4.90;;;2.63;;
61411;SDS011;47278;49.732;7.690;2023-04-25T14:48:18;7.70;;;2.70;;